Time;durP1;ratioP1;P1;durP2;ratioP2;P2;SDS_P1;SDS_P2;PMS_P1;PMS_P2;Temp;Humidity;BMP_temperature;BMP_pressure;BME280_temperature;BME280_humidity;BME280_pressure;Samples;Min_cycle;Max_cycle;Signal;HPM_P1;HPM_P2
2024/01/24 00:01:35;;;;;;;3.60;0.70;;;10.10;99.90;;;;;;5069696;28;20566;-72
2024/01/24 00:04:01;;;;;;;1.80;0.70;;;10.10;99.90;;;;;;5069003;28;20428;-72
2024/01/24 00:06:27;;;;;;;1.63;0.60;;;10.20;99.90;;;;;;5069153;28;20187;-72
2024/01/24 00:08:53;;;;;;;1.73;0.70;;;10.30;99.90;;;;;;5068916;28;20251;-72
2024/01/24 00:11:18;;;;;;;2.50;0.80;;;10.30;99.90;;;;;;5068954;28;20586;-72
2024/01/24 00:13:44;;;;;;;3.37;0.90;;;10.50;99.90;;;;;;5068852;28;20570;-73
2024/01/24 00:16:10;;;;;;;1.53;0.67;;;10.50;99.90;;;;;;5068951;28;20188;-72
2024/01/24 00:18:35;;;;;;;2.40;0.80;;;10.50;99.90;;;;;;5068526;28;20468;-72
2024/01/24 00:21:01;;;;;;;8.27;0.90;;;10.60;99.90;;;;;;5068800;28;20664;-71
2024/01/24 00:23:27;;;;;;;1.93;0.60;;;10.60;99.90;;;;;;5068669;28;20179;-72
2024/01/24 00:25:53;;;;;;;5.13;0.90;;;10.50;99.90;;;;;;5068545;28;20533;-71
2024/01/24 00:28:21;;;;;;;6.73;0.80;;;10.50;99.90;;;;;;5068639;28;20218;-71
2024/01/24 00:30:46;;;;;;;3.80;1.37;;;10.50;99.90;;;;;;5068646;28;20183;-71
2024/01/24 00:33:12;;;;;;;2.13;0.70;;;10.60;99.90;;;;;;5068521;28;20418;-71
2024/01/24 00:35:38;;;;;;;7.70;1.00;;;10.50;99.90;;;;;;5068617;28;20238;-70
2024/01/24 00:38:04;;;;;;;7.70;0.80;;;10.50;99.90;;;;;;5068175;28;20234;-71
2024/01/24 00:40:29;;;;;;;5.37;1.20;;;10.60;99.90;;;;;;5068646;28;20191;-71
2024/01/24 00:42:55;;;;;;;6.03;0.97;;;10.60;99.90;;;;;;5050254;28;20179;-70
2024/01/24 00:45:20;;;;;;;4.00;0.70;;;10.60;99.90;;;;;;5068438;28;20185;-71
2024/01/24 00:47:46;;;;;;;3.83;0.97;;;10.70;99.90;;;;;;5068345;28;20203;-72
2024/01/24 00:50:12;;;;;;;2.70;0.73;;;10.80;99.90;;;;;;5068319;28;20260;-72
2024/01/24 00:52:37;;;;;;;2.17;0.57;;;10.80;99.90;;;;;;5068382;28;20237;-72
2024/01/24 00:55:04;;;;;;;4.73;1.17;;;10.70;99.90;;;;;;5068340;28;20184;-71
2024/01/24 00:57:29;;;;;;;2.27;0.70;;;10.80;99.90;;;;;;5068147;28;20208;-72
2024/01/24 00:59:55;;;;;;;4.70;0.60;;;10.80;99.90;;;;;;5071049;28;20467;-72
2024/01/24 01:02:20;;;;;;;4.00;0.90;;;10.90;99.90;;;;;;5072198;28;20222;-72
2024/01/24 01:04:46;;;;;;;2.63;0.80;;;10.90;99.90;;;;;;5072185;28;20207;-72
2024/01/24 01:07:12;;;;;;;6.00;1.37;;;11.00;99.90;;;;;;5072110;28;20228;-72
2024/01/24 01:09:37;;;;;;;2.87;0.60;;;11.00;99.90;;;;;;5072134;28;20188;-71
2024/01/24 01:12:03;;;;;;;6.60;1.20;;;11.00;99.90;;;;;;5072135;28;20193;-71
2024/01/24 01:14:29;;;;;;;3.20;0.97;;;11.00;99.90;;;;;;5072099;28;20634;-72
2024/01/24 01:16:54;;;;;;;1.17;0.50;;;11.00;99.90;;;;;;5071795;28;20426;-72
2024/01/24 01:19:20;;;;;;;2.53;0.87;;;11.10;99.90;;;;;;5071958;28;20234;-72
2024/01/24 01:21:46;;;;;;;3.97;0.80;;;11.20;99.90;;;;;;5054115;28;20211;-72
2024/01/24 01:24:11;;;;;;;2.90;0.90;;;11.20;99.90;;;;;;5072672;28;20189;-71
2024/01/24 01:26:37;;;;;;;3.03;0.83;;;11.30;99.90;;;;;;5072456;28;20289;-71
2024/01/24 01:29:02;;;;;;;2.40;0.87;;;11.30;99.90;;;;;;5072468;28;20238;-71
2024/01/24 01:31:28;;;;;;;1.40;0.83;;;11.40;99.90;;;;;;5072579;28;20183;-71
2024/01/24 01:33:54;;;;;;;4.83;0.67;;;11.50;99.90;;;;;;5072570;28;20258;-71
2024/01/24 01:36:20;;;;;;;1.87;0.87;;;11.40;99.90;;;;;;5072238;28;20187;-72
2024/01/24 01:38:45;;;;;;;2.50;0.87;;;11.50;99.90;;;;;;5071894;28;20471;-72
2024/01/24 01:41:11;;;;;;;2.50;0.60;;;11.40;99.90;;;;;;5071830;28;20174;-71
2024/01/24 01:43:37;;;;;;;2.57;0.87;;;11.40;99.90;;;;;;5072301;28;20184;-71
2024/01/24 01:46:08;;;;;;;4.70;1.07;;;11.40;99.90;;;;;;5072467;28;20209;-71
2024/01/24 01:48:34;;;;;;;6.03;0.93;;;11.40;99.90;;;;;;5071996;28;20217;-71
2024/01/24 01:51:01;;;;;;;2.60;0.67;;;11.50;99.90;;;;;;5072186;28;20803;-71
2024/01/24 01:53:26;;;;;;;7.20;0.83;;;11.40;99.90;;;;;;5071405;28;20178;-71
2024/01/24 01:55:53;;;;;;;1.73;0.70;;;11.30;99.90;;;;;;5071402;28;20426;-71
2024/01/24 01:58:19;;;;;;;5.53;1.03;;;11.30;99.90;;;;;;5071199;28;20300;-72
2024/01/24 02:00:48;;;;;;;4.63;0.93;;;11.30;99.90;;;;;;5071348;28;20466;-72
2024/01/24 02:03:14;;;;;;;2.30;0.60;;;11.30;99.90;;;;;;5071127;28;20422;-71
2024/01/24 02:05:39;;;;;;;4.47;0.60;;;11.20;99.90;;;;;;5071188;28;20418;-72
2024/01/24 02:08:06;;;;;;;2.73;0.80;;;11.20;99.90;;;;;;5071096;28;20199;-72
2024/01/24 02:10:32;;;;;;;3.30;0.80;;;11.10;99.90;;;;;;5070598;28;20176;-73
2024/01/24 02:12:59;;;;;;;2.13;0.60;;;11.10;99.90;;;;;;5071011;28;20491;-72
2024/01/24 02:15:26;;;;;;;5.87;0.90;;;11.00;99.90;;;;;;5070926;28;20178;-72
2024/01/24 02:17:52;;;;;;;3.60;0.87;;;11.00;99.90;;;;;;5052883;28;20470;-72
2024/01/24 02:20:18;;;;;;;2.53;0.90;;;11.00;99.90;;;;;;5071013;28;20521;-72
2024/01/24 02:22:44;;;;;;;2.37;0.90;;;11.00;99.90;;;;;;5071009;28;20419;-72
2024/01/24 02:25:10;;;;;;;2.83;0.73;;;11.10;99.90;;;;;;5070982;28;20467;-72
2024/01/24 02:27:35;;;;;;;3.20;0.83;;;11.10;99.90;;;;;;5070872;28;20347;-72
2024/01/24 02:30:01;;;;;;;3.37;1.00;;;11.20;99.90;;;;;;5052722;28;20592;-72
2024/01/24 02:32:26;;;;;;;2.63;0.70;;;11.30;99.90;;;;;;5070650;28;20180;-71
2024/01/24 02:34:52;;;;;;;1.93;0.60;;;11.20;99.90;;;;;;5070614;28;20192;-72
2024/01/24 02:37:21;;;;;;;1.50;0.80;;;11.30;99.90;;;;;;5070560;28;20229;-72
2024/01/24 02:39:47;;;;;;;2.30;0.60;;;11.20;99.90;;;;;;5070532;28;20185;-72
2024/01/24 02:42:13;;;;;;;2.40;0.60;;;11.20;99.90;;;;;;5070699;28;20833;-72
2024/01/24 02:44:39;;;;;;;3.03;0.60;;;11.20;99.90;;;;;;5070663;28;20414;-72
2024/01/24 02:47:04;;;;;;;2.33;0.73;;;11.30;99.90;;;;;;5070388;28;20427;-71
2024/01/24 02:49:30;;;;;;;3.90;0.90;;;11.30;99.90;;;;;;5070462;28;20205;-72
2024/01/24 02:51:57;;;;;;;2.40;0.60;;;11.30;99.90;;;;;;5070463;28;20269;-72
2024/01/24 02:54:22;;;;;;;2.13;0.87;;;11.20;99.90;;;;;;5070471;28;20471;-72
2024/01/24 02:56:48;;;;;;;2.60;0.80;;;11.30;99.90;;;;;;5070557;28;20459;-72
2024/01/24 02:59:13;;;;;;;3.33;0.50;;;11.30;99.90;;;;;;5052623;28;20235;-72
2024/01/24 03:01:40;;;;;;;1.10;0.50;;;11.20;99.90;;;;;;5070422;28;20626;-71
2024/01/24 03:04:07;;;;;;;8.63;0.80;;;11.20;99.90;;;;;;5070666;28;20818;-71
2024/01/24 03:06:33;;;;;;;2.23;0.80;;;11.20;99.90;;;;;;5070812;28;20441;-71
2024/01/24 03:08:59;;;;;;;3.83;1.20;;;11.20;99.90;;;;;;5070866;28;20529;-71
2024/01/24 03:11:24;;;;;;;2.53;0.67;;;11.20;99.90;;;;;;5070809;28;20274;-71
2024/01/24 03:13:50;;;;;;;9.50;1.53;;;11.20;99.90;;;;;;5070831;28;20428;-72
2024/01/24 03:16:17;;;;;;;3.37;0.90;;;11.20;99.90;;;;;;5070648;28;20416;-71
2024/01/24 03:18:42;;;;;;;1.63;0.60;;;11.20;99.90;;;;;;5070579;28;20207;-71
2024/01/24 03:21:15;;;;;;;1.97;0.70;;;11.30;99.90;;;;;;5069878;28;20418;-72
2024/01/24 03:23:40;;;;;;;3.53;0.67;;;11.30;99.90;;;;;;5071060;28;20556;-71
2024/01/24 03:26:06;;;;;;;3.07;0.83;;;11.30;99.90;;;;;;5071394;28;20426;-72
2024/01/24 03:28:33;;;;;;;0.90;0.50;;;11.40;99.90;;;;;;5070138;28;20289;-73
2024/01/24 03:30:59;;;;;;;2.53;0.70;;;11.30;99.90;;;;;;5070324;28;20445;-72
2024/01/24 03:33:25;;;;;;;6.43;0.67;;;11.20;99.90;;;;;;5070106;28;20420;-73
2024/01/24 03:35:51;;;;;;;1.83;0.67;;;11.20;99.90;;;;;;5069821;28;20412;-72
2024/01/24 03:38:17;;;;;;;3.47;0.70;;;11.20;99.90;;;;;;5034843;28;20274;-72
2024/01/24 03:40:43;;;;;;;2.73;0.70;;;11.10;99.90;;;;;;5069650;28;20171;-73
2024/01/24 03:43:10;;;;;;;3.40;0.97;;;11.30;99.90;;;;;;5069487;28;20415;-72
2024/01/24 03:45:37;;;;;;;2.80;0.80;;;11.30;99.90;;;;;;5069458;28;20479;-72
2024/01/24 03:48:06;;;;;;;4.60;0.90;;;11.30;99.90;;;;;;5069369;28;20438;-73
2024/01/24 03:50:32;;;;;;;3.13;1.00;;;11.30;99.90;;;;;;5069526;28;20413;-72
2024/01/24 03:53:00;;;;;;;2.60;0.70;;;11.30;99.90;;;;;;5069194;28;20418;-73
2024/01/24 03:55:25;;;;;;;1.30;0.70;;;11.20;99.90;;;;;;5069297;28;20795;-72
2024/01/24 03:57:51;;;;;;;3.33;1.33;;;11.20;99.90;;;;;;5069019;28;20481;-72
2024/01/24 04:00:16;;;;;;;2.87;0.80;;;11.30;99.90;;;;;;5051311;28;20807;-72
2024/01/24 04:02:42;;;;;;;3.60;0.77;;;11.30;99.90;;;;;;5050994;28;20229;-72
2024/01/24 04:05:10;;;;;;;3.27;0.90;;;11.20;99.90;;;;;;5051069;28;20554;-72
2024/01/24 04:07:36;;;;;;;2.13;0.60;;;11.20;99.90;;;;;;5051208;28;20634;-72
2024/01/24 04:10:03;;;;;;;3.40;0.80;;;11.30;99.90;;;;;;5068915;28;20425;-73
2024/01/24 04:12:29;;;;;;;3.23;0.80;;;11.20;99.90;;;;;;5068876;28;20769;-73
2024/01/24 04:14:55;;;;;;;7.53;0.90;;;11.20;99.90;;;;;;5068792;28;20420;-72
2024/01/24 04:17:21;;;;;;;1.53;0.80;;;11.40;99.90;;;;;;5068812;28;20515;-72
2024/01/24 04:19:46;;;;;;;2.57;0.80;;;11.30;99.90;;;;;;5068774;28;20175;-73
2024/01/24 04:22:12;;;;;;;2.00;0.70;;;11.30;99.90;;;;;;5068800;28;20176;-73
2024/01/24 04:24:37;;;;;;;1.73;1.03;;;11.30;99.90;;;;;;5068661;28;20245;-72
2024/01/24 04:27:03;;;;;;;2.20;0.80;;;11.20;99.90;;;;;;5068443;28;20187;-73
2024/01/24 04:29:29;;;;;;;2.23;0.80;;;11.30;99.90;;;;;;5068564;28;20619;-72
2024/01/24 04:31:54;;;;;;;4.33;0.70;;;11.30;99.90;;;;;;5068565;28;20183;-72
2024/01/24 04:34:20;;;;;;;1.57;0.80;;;11.40;99.90;;;;;;5068433;28;20705;-72
2024/01/24 04:36:46;;;;;;;2.90;0.83;;;11.30;99.90;;;;;;5068274;28;20192;-71
2024/01/24 04:39:11;;;;;;;3.40;0.90;;;11.30;99.90;;;;;;5050496;28;20216;-71
2024/01/24 04:41:37;;;;;;;4.00;0.87;;;11.30;99.90;;;;;;5068604;28;21309;-71
2024/01/24 04:44:03;;;;;;;3.00;0.90;;;11.20;99.90;;;;;;5068321;28;20220;-71
2024/01/24 04:46:29;;;;;;;1.50;0.70;;;11.30;99.90;;;;;;5068352;28;20207;-71
2024/01/24 04:48:54;;;;;;;2.60;0.83;;;11.30;99.90;;;;;;5068366;28;20888;-71
2024/01/24 04:51:21;;;;;;;2.00;0.60;;;11.30;99.90;;;;;;5050460;28;20238;-71
2024/01/24 04:53:47;;;;;;;1.87;0.60;;;11.40;99.90;;;;;;5068348;28;20267;-71
2024/01/24 04:56:14;;;;;;;2.03;0.80;;;11.30;99.90;;;;;;5068063;28;20525;-71
2024/01/24 04:58:42;;;;;;;1.23;0.87;;;11.40;99.90;;;;;;5069275;28;20996;-71
2024/01/24 05:01:08;;;;;;;1.17;0.80;;;11.20;99.90;;;;;;5067213;28;20442;-71
2024/01/24 05:03:33;;;;;;;2.93;1.03;;;11.30;99.90;;;;;;5067154;28;20424;-70
2024/01/24 05:06:00;;;;;;;2.03;0.80;;;11.30;99.90;;;;;;5066773;28;20186;-71
2024/01/24 05:08:25;;;;;;;5.30;0.80;;;11.20;99.90;;;;;;5066935;28;20201;-72
2024/01/24 05:10:51;;;;;;;2.23;0.80;;;11.30;99.90;;;;;;5048500;28;21094;-72
2024/01/24 05:13:18;;;;;;;4.43;1.00;;;11.20;99.90;;;;;;5067059;28;20205;-72
2024/01/24 05:15:43;;;;;;;2.03;0.97;;;11.20;99.90;;;;;;5066792;28;20415;-71
2024/01/24 05:18:09;;;;;;;4.40;1.10;;;11.20;99.90;;;;;;5066801;28;20480;-70
2024/01/24 05:20:35;;;;;;;4.40;0.80;;;11.30;99.90;;;;;;5067004;28;20181;-72
2024/01/24 05:23:03;;;;;;;2.70;0.90;;;11.20;99.90;;;;;;5048396;28;20449;-72
2024/01/24 05:25:29;;;;;;;2.27;0.90;;;11.20;99.90;;;;;;5066651;28;20722;-72
2024/01/24 05:27:55;;;;;;;2.80;0.93;;;11.20;99.90;;;;;;5066662;28;20483;-72
2024/01/24 05:30:21;;;;;;;5.37;1.00;;;11.20;99.90;;;;;;5067145;28;20457;-72
2024/01/24 05:32:46;;;;;;;3.40;0.73;;;11.20;99.90;;;;;;5048603;28;20263;-71
2024/01/24 05:35:12;;;;;;;2.03;1.03;;;11.20;99.90;;;;;;5066571;28;20213;-72
2024/01/24 05:37:37;;;;;;;2.50;1.10;;;11.30;99.90;;;;;;5066574;28;20710;-71
2024/01/24 05:40:04;;;;;;;3.70;0.97;;;11.30;99.90;;;;;;5066764;28;20182;-72
2024/01/24 05:42:29;;;;;;;2.03;0.70;;;11.30;99.90;;;;;;5066318;28;20186;-72
2024/01/24 05:44:55;;;;;;;13.23;1.00;;;11.30;99.90;;;;;;5067423;28;20422;-72
2024/01/24 05:47:20;;;;;;;4.37;0.70;;;11.40;99.90;;;;;;5070011;28;20213;-71
2024/01/24 05:49:47;;;;;;;3.13;0.90;;;11.40;99.90;;;;;;5069922;28;20192;-72
2024/01/24 05:52:13;;;;;;;2.13;0.90;;;11.40;99.90;;;;;;5070050;28;20187;-72
2024/01/24 05:54:40;;;;;;;2.83;0.90;;;11.40;99.90;;;;;;5069883;28;20418;-72
2024/01/24 05:57:05;;;;;;;4.67;0.90;;;11.40;99.90;;;;;;5070087;28;20247;-72
2024/01/24 05:59:31;;;;;;;2.13;1.03;;;11.40;99.90;;;;;;5069721;28;20438;-72
2024/01/24 06:01:56;;;;;;;1.97;0.70;;;11.40;99.90;;;;;;5069840;28;20708;-71
2024/01/24 06:04:22;;;;;;;3.30;0.90;;;11.50;99.90;;;;;;5069770;28;20213;-71
2024/01/24 06:06:47;;;;;;;2.27;0.67;;;11.60;99.90;;;;;;5069773;28;20183;-70
2024/01/24 06:09:13;;;;;;;3.10;0.83;;;11.50;99.90;;;;;;5051437;28;20286;-72
2024/01/24 06:11:39;;;;;;;4.60;1.00;;;11.50;99.90;;;;;;5069877;28;20198;-71
2024/01/24 06:14:04;;;;;;;2.00;0.77;;;11.60;99.90;;;;;;5069705;28;20213;-72
2024/01/24 06:16:30;;;;;;;3.73;1.07;;;11.70;99.90;;;;;;5069713;28;20196;-71
2024/01/24 06:18:56;;;;;;;2.17;0.83;;;11.60;99.90;;;;;;5069451;28;20303;-72
2024/01/24 06:21:21;;;;;;;2.03;0.50;;;11.60;99.90;;;;;;5051521;28;20591;-71
2024/01/24 06:23:47;;;;;;;1.80;0.80;;;11.70;99.90;;;;;;5069426;28;20597;-72
2024/01/24 06:26:13;;;;;;;5.43;0.93;;;11.70;99.90;;;;;;5069864;28;20185;-72
2024/01/24 06:28:39;;;;;;;1.67;0.80;;;11.70;99.90;;;;;;5069803;28;20679;-72
2024/01/24 06:31:05;;;;;;;1.23;1.00;;;11.70;99.90;;;;;;5051673;28;20433;-71
2024/01/24 06:33:30;;;;;;;2.30;1.10;;;11.70;99.90;;;;;;5069526;28;20239;-72
2024/01/24 06:35:57;;;;;;;1.40;0.80;;;11.70;99.90;;;;;;5069169;28;20212;-71
2024/01/24 06:38:23;;;;;;;3.10;1.30;;;11.70;99.90;;;;;;5050901;28;20233;-72
2024/01/24 06:40:49;;;;;;;4.37;0.90;;;11.80;99.90;;;;;;5068909;28;20463;-71
2024/01/24 06:43:18;;;;;;;7.93;1.03;;;11.80;99.90;;;;;;5069073;28;20178;-72
2024/01/24 06:45:44;;;;;;;2.07;0.70;;;11.80;99.90;;;;;;5069078;28;20417;-72
2024/01/24 06:48:10;;;;;;;2.87;0.80;;;11.90;99.90;;;;;;5068896;28;20475;-71
2024/01/24 06:50:36;;;;;;;1.87;0.87;;;11.90;99.90;;;;;;5069046;28;20481;-72
2024/01/24 06:53:02;;;;;;;2.23;0.70;;;11.90;99.90;;;;;;5068697;28;20251;-72
2024/01/24 06:55:27;;;;;;;2.00;0.80;;;11.90;99.90;;;;;;5069045;28;20983;-72
2024/01/24 06:57:53;;;;;;;1.43;0.60;;;11.90;99.90;;;;;;5068464;28;20224;-71
2024/01/24 07:00:19;;;;;;;2.30;1.27;;;12.10;99.90;;;;;;5068663;28;20219;-71
2024/01/24 07:02:44;;;;;;;2.57;0.77;;;12.00;99.90;;;;;;5069290;28;20187;-72
2024/01/24 07:05:10;;;;;;;2.60;0.70;;;12.10;99.90;;;;;;5068965;28;20452;-71
2024/01/24 07:07:37;;;;;;;0.90;0.60;;;12.10;99.90;;;;;;5068591;28;20212;-70
2024/01/24 07:10:03;;;;;;;1.10;0.70;;;12.20;99.90;;;;;;5068547;28;20185;-71
2024/01/24 07:12:28;;;;;;;1.97;1.00;;;12.20;99.90;;;;;;5068632;28;21290;-71
2024/01/24 07:14:54;;;;;;;1.90;0.90;;;12.20;99.90;;;;;;5050526;28;20435;-71
2024/01/24 07:17:20;;;;;;;2.70;0.63;;;12.20;99.90;;;;;;5068108;28;20292;-71
2024/01/24 07:19:46;;;;;;;2.40;1.10;;;12.30;99.90;;;;;;5068286;28;20212;-71
2024/01/24 07:22:11;;;;;;;1.00;0.50;;;12.20;99.90;;;;;;5068575;28;20714;-71
2024/01/24 07:24:37;;;;;;;2.60;0.73;;;12.30;99.90;;;;;;5049934;28;20523;-71
2024/01/24 07:27:03;;;;;;;2.90;0.90;;;12.20;99.90;;;;;;5067918;28;20185;-71
2024/01/24 07:29:29;;;;;;;0.87;0.60;;;12.20;99.90;;;;;;5068153;28;20296;-71
2024/01/24 07:31:54;;;;;;;5.17;0.80;;;12.30;99.90;;;;;;5068375;28;20756;-70
2024/01/24 07:34:20;;;;;;;3.10;0.90;;;12.30;99.90;;;;;;5049747;28;20537;-70
2024/01/24 07:36:45;;;;;;;0.90;0.80;;;12.30;99.90;;;;;;5067704;28;20199;-70
2024/01/24 07:39:11;;;;;;;5.23;1.10;;;12.30;99.90;;;;;;5067853;28;20724;-70
2024/01/24 07:41:37;;;;;;;1.20;0.80;;;12.30;99.90;;;;;;5068010;28;20184;-70
2024/01/24 07:44:02;;;;;;;4.20;1.10;;;12.30;99.90;;;;;;5068338;28;20181;-70
2024/01/24 07:46:29;;;;;;;1.63;0.60;;;12.30;99.90;;;;;;5049816;28;20557;-70
2024/01/24 07:48:55;;;;;;;2.60;0.70;;;12.30;99.90;;;;;;5067859;28;20209;-70
2024/01/24 07:51:20;;;;;;;3.63;1.43;;;12.30;99.90;;;;;;5068097;28;20518;-72
2024/01/24 07:53:47;;;;;;;1.83;0.70;;;12.40;99.90;;;;;;5067901;28;20246;-72
2024/01/24 07:56:13;;;;;;;1.20;0.60;;;12.40;99.90;;;;;;5067939;28;20185;-72
2024/01/24 07:58:40;;;;;;;2.20;0.87;;;12.40;99.90;;;;;;5049827;28;21270;-71
2024/01/24 08:01:07;;;;;;;2.30;0.73;;;12.40;99.90;;;;;;5067782;28;20518;-69
2024/01/24 08:03:33;;;;;;;2.40;0.70;;;12.50;99.90;;;;;;5067536;28;20414;-70
2024/01/24 08:05:58;;;;;;;2.87;0.87;;;12.40;99.90;;;;;;5067605;28;20424;-69
2024/01/24 08:08:24;;;;;;;1.67;0.70;;;12.50;99.90;;;;;;5049007;28;20209;-71
2024/01/24 08:10:49;;;;;;;0.80;0.60;;;12.50;99.90;;;;;;5067523;28;20199;-70
2024/01/24 08:13:15;;;;;;;1.67;0.60;;;12.50;99.90;;;;;;5067753;28;20276;-72
2024/01/24 08:15:40;;;;;;;1.00;0.70;;;12.50;99.90;;;;;;5067445;28;20189;-71
2024/01/24 08:18:07;;;;;;;1.17;0.50;;;12.50;99.90;;;;;;5067604;28;20323;-72
2024/01/24 08:20:33;;;;;;;1.20;0.60;;;12.50;99.90;;;;;;5067387;28;20240;-71
2024/01/24 08:23:00;;;;;;;1.10;0.70;;;12.60;99.90;;;;;;5067541;28;20425;-71
2024/01/24 08:25:26;;;;;;;1.00;0.67;;;12.50;99.90;;;;;;5067393;28;20910;-71
2024/01/24 08:27:53;;;;;;;0.80;0.50;;;12.50;99.90;;;;;;5067297;28;20440;-70
2024/01/24 08:30:19;;;;;;;1.47;0.70;;;12.50;99.90;;;;;;5067356;28;20431;-71
2024/01/24 08:32:45;;;;;;;2.20;0.67;;;12.50;99.90;;;;;;5049264;28;20985;-71
2024/01/24 08:35:12;;;;;;;0.80;0.40;;;12.50;99.90;;;;;;5067046;28;20420;-71
2024/01/24 08:37:37;;;;;;;1.23;0.50;;;12.50;99.90;;;;;;5066826;28;20220;-71
2024/01/24 08:40:03;;;;;;;0.97;0.50;;;12.60;99.90;;;;;;5067345;28;20424;-71
2024/01/24 08:42:29;;;;;;;1.40;0.60;;;12.60;99.90;;;;;;5067261;28;20323;-71
2024/01/24 08:44:55;;;;;;;0.70;0.40;;;12.70;99.90;;;;;;5067573;28;20914;-71
2024/01/24 08:47:20;;;;;;;0.80;0.40;;;12.70;99.90;;;;;;5067418;28;20672;-71
2024/01/24 08:49:46;;;;;;;1.10;0.47;;;12.70;99.90;;;;;;5067373;28;20189;-71
2024/01/24 08:52:12;;;;;;;0.80;0.50;;;12.70;99.90;;;;;;5067351;28;20664;-71
2024/01/24 08:54:37;;;;;;;0.80;0.50;;;12.70;99.90;;;;;;5067548;28;20231;-71
2024/01/24 08:57:03;;;;;;;1.00;0.47;;;12.70;99.90;;;;;;5067634;28;20514;-71
2024/01/24 08:59:29;;;;;;;1.00;0.50;;;12.70;99.90;;;;;;5067765;28;21081;-71
2024/01/24 09:01:56;;;;;;;0.70;0.40;;;12.70;99.90;;;;;;5067954;28;20423;-71
2024/01/24 09:04:23;;;;;;;1.43;0.40;;;12.70;99.90;;;;;;5067676;28;20180;-71
2024/01/24 09:06:49;;;;;;;0.70;0.40;;;12.70;99.90;;;;;;5067632;28;20439;-71
2024/01/24 09:09:14;;;;;;;2.70;0.57;;;12.70;99.90;;;;;;5049384;28;20461;-71
2024/01/24 09:11:41;;;;;;;1.00;0.70;;;12.80;99.90;;;;;;5067972;28;20428;-71
2024/01/24 09:14:07;;;;;;;0.70;0.40;;;12.80;99.90;;;;;;5066866;28;20569;-71
2024/01/24 09:16:32;;;;;;;0.70;0.40;;;12.80;99.90;;;;;;5068024;28;20456;-71
2024/01/24 09:18:58;;;;;;;1.00;0.57;;;12.90;99.90;;;;;;5067642;28;20576;-71
2024/01/24 09:21:23;;;;;;;1.53;0.43;;;12.90;99.90;;;;;;5070780;28;20181;-71
2024/01/24 09:23:50;;;;;;;0.80;0.50;;;12.90;99.90;;;;;;5071161;28;20608;-71
2024/01/24 09:26:16;;;;;;;0.70;0.40;;;12.90;99.90;;;;;;5071071;28;20254;-71
2024/01/24 09:28:42;;;;;;;0.70;0.40;;;12.90;99.90;;;;;;5070805;28;20452;-71
2024/01/24 09:31:08;;;;;;;0.90;0.50;;;12.90;99.90;;;;;;5071120;28;20434;-71
2024/01/24 09:33:33;;;;;;;0.70;0.40;;;13.00;99.90;;;;;;5071113;28;20192;-71
2024/01/24 09:35:59;;;;;;;0.80;0.50;;;13.00;99.90;;;;;;5071071;28;20814;-71
2024/01/24 09:38:25;;;;;;;0.70;0.40;;;13.00;99.90;;;;;;5052744;28;20225;-71
2024/01/24 09:40:52;;;;;;;0.80;0.40;;;13.00;99.90;;;;;;5070846;28;20515;-72
2024/01/24 09:43:21;;;;;;;0.80;0.50;;;13.00;99.90;;;;;;5070750;28;20188;-72
2024/01/24 09:45:49;;;;;;;0.70;0.40;;;13.10;99.90;;;;;;5070635;28;20424;-72
2024/01/24 09:48:16;;;;;;;0.70;0.40;;;13.10;99.90;;;;;;5070791;28;20976;-72
2024/01/24 09:50:44;;;;;;;1.87;0.50;;;13.10;99.90;;;;;;5070724;28;20568;-72
2024/01/24 09:53:15;;;;;;;0.80;0.50;;;13.10;99.90;;;;;;5070256;28;20436;-72
2024/01/24 09:55:42;;;;;;;0.77;0.47;;;13.10;99.90;;;;;;5070346;28;20506;-72
2024/01/24 09:58:07;;;;;;;0.80;0.40;;;13.10;99.90;;;;;;5070305;28;20473;-71
2024/01/24 10:00:33;;;;;;;0.80;0.40;;;13.10;99.90;;;;;;5070540;28;20427;-70
2024/01/24 10:02:59;;;;;;;0.90;0.40;;;13.10;99.90;;;;;;5070669;28;20220;-73
2024/01/24 10:05:25;;;;;;;0.80;0.40;;;13.10;99.90;;;;;;5070194;28;20200;-71
2024/01/24 10:07:52;;;;;;;0.90;0.50;;;13.10;99.90;;;;;;5070418;28;20264;-72
2024/01/24 10:10:17;;;;;;;0.70;0.40;;;13.00;99.90;;;;;;5070953;28;20468;-73
2024/01/24 10:12:43;;;;;;;0.80;0.50;;;12.90;99.90;;;;;;5055015;28;20457;-72
2024/01/24 10:15:10;;;;;;;1.10;0.50;;;12.90;99.90;;;;;;5051947;28;20921;-72
2024/01/24 10:17:39;;;;;;;0.77;0.50;;;12.90;99.90;;;;;;5070586;28;20605;-72
2024/01/24 10:20:07;;;;;;;0.70;0.40;;;12.90;99.90;;;;;;5070154;28;20547;-72
2024/01/24 10:22:33;;;;;;;1.37;0.50;;;12.80;99.90;;;;;;5069861;28;20433;-72
2024/01/24 10:24:59;;;;;;;1.10;0.50;;;12.90;99.90;;;;;;5070091;28;20420;-71
2024/01/24 10:27:26;;;;;;;0.80;0.57;;;12.80;99.90;;;;;;5069689;28;20221;-70
2024/01/24 10:29:51;;;;;;;0.80;0.50;;;12.90;99.90;;;;;;5069837;28;20202;-70
2024/01/24 10:32:17;;;;;;;0.80;0.40;;;12.90;99.90;;;;;;5051322;28;20462;-71
2024/01/24 10:34:43;;;;;;;0.80;0.40;;;13.00;99.90;;;;;;5071371;28;20299;-70
2024/01/24 10:37:08;;;;;;;0.80;0.40;;;13.20;99.90;;;;;;5051036;28;20216;-70
2024/01/24 10:39:39;;;;;;;0.70;0.40;;;13.50;99.90;;;;;;5069360;28;20241;-71
2024/01/24 10:42:08;;;;;;;0.70;0.40;;;14.00;99.90;;;;;;5069752;28;20412;-71
2024/01/24 10:44:35;;;;;;;0.70;0.40;;;14.00;99.90;;;;;;5069734;28;20507;-71
2024/01/24 10:47:04;;;;;;;0.80;0.40;;;13.80;99.90;;;;;;5069799;28;20429;-70
2024/01/24 10:49:31;;;;;;;1.03;0.40;;;13.70;99.90;;;;;;5069674;28;20463;-72
2024/01/24 10:51:57;;;;;;;0.73;0.47;;;13.60;99.90;;;;;;5070016;28;20947;-71
2024/01/24 10:54:23;;;;;;;1.30;0.40;;;13.50;99.90;;;;;;5069752;28;20421;-71
2024/01/24 10:56:50;;;;;;;0.77;0.40;;;13.40;99.90;;;;;;5069870;28;20420;-71
2024/01/24 10:59:17;;;;;;;0.80;0.50;;;13.30;99.90;;;;;;5069796;28;20525;-70
2024/01/24 11:01:43;;;;;;;1.07;0.40;;;13.20;99.90;;;;;;5069610;28;20424;-70
2024/01/24 11:04:11;;;;;;;0.70;0.40;;;13.10;99.90;;;;;;5069655;28;20420;-72
2024/01/24 11:06:44;;;;;;;0.70;0.30;;;13.10;99.90;;;;;;5069448;28;20479;-71
2024/01/24 11:09:53;;;;;;;0.73;0.40;;;13.10;99.90;;;;;;5071657;28;20439;-70
2024/01/24 11:12:20;;;;;;;0.80;0.50;;;13.00;99.90;;;;;;5052649;28;20475;-71
2024/01/24 11:14:47;;;;;;;0.93;0.40;;;13.00;99.90;;;;;;5071244;28;20538;-71
2024/01/24 11:17:12;;;;;;;8.63;5.30;;;13.00;99.90;;;;;;5070173;28;20423;-71
2024/01/24 11:19:38;;;;;;;1.20;1.10;;;12.80;99.90;;;;;;5069287;28;20435;-71
2024/01/24 11:22:11;;;;;;;0.70;0.40;;;12.70;99.90;;;;;;5069307;28;20189;-72
2024/01/24 11:24:46;;;;;;;1.87;0.60;;;12.70;99.90;;;;;;5069030;28;20175;-72
2024/01/24 11:27:27;;;;;;;0.70;0.50;;;12.60;99.90;;;;;;5068885;28;20412;-71
2024/01/24 11:29:54;;;;;;;1.00;0.50;;;12.60;99.90;;;;;;5069213;28;20411;-71
2024/01/24 11:32:44;;;;;;;1.53;0.70;;;12.50;99.90;;;;;;5068810;28;20424;-72
2024/01/24 11:35:41;;;;;;;0.70;0.40;;;12.40;99.90;;;;;;5068678;28;20418;-72
2024/01/24 11:38:27;;;;;;;1.23;1.13;;;12.50;99.90;;;;;;5050107;28;21013;-72
2024/01/24 11:41:08;;;;;;;0.70;0.40;;;12.60;99.90;;;;;;5068521;28;20418;-71
2024/01/24 11:43:35;;;;;;;0.80;0.40;;;12.60;99.90;;;;;;5068017;28;20420;-72
2024/01/24 11:46:03;;;;;;;0.80;0.40;;;12.60;99.90;;;;;;5068505;28;20860;-71
2024/01/24 11:48:30;;;;;;;1.37;0.47;;;12.80;99.90;;;;;;5068326;28;20561;-71
2024/01/24 11:51:00;;;;;;;1.20;0.60;;;12.70;99.90;;;;;;5068360;28;20426;-71
2024/01/24 11:53:27;;;;;;;0.93;0.60;;;12.70;99.90;;;;;;5068522;28;20447;-71
2024/01/24 11:56:03;;;;;;;1.33;0.40;;;12.70;99.90;;;;;;5068418;28;20443;-73
2024/01/24 11:58:29;;;;;;;0.70;0.40;;;12.70;99.90;;;;;;5067492;28;20471;-72
2024/01/24 12:01:04;;;;;;;1.10;0.70;;;12.80;99.90;;;;;;5067617;28;20498;-72
2024/01/24 12:03:30;;;;;;;0.70;0.40;;;12.60;99.90;;;;;;5068194;28;20406;-72
2024/01/24 12:05:59;;;;;;;0.70;0.40;;;12.50;99.90;;;;;;5068123;28;20461;-72
2024/01/24 12:08:25;;;;;;;1.00;0.50;;;12.40;99.90;;;;;;5067320;28;20466;-72
2024/01/24 12:10:51;;;;;;;0.73;0.40;;;12.30;99.90;;;;;;5068226;28;20470;-72
2024/01/24 12:13:18;;;;;;;0.70;0.40;;;12.30;99.90;;;;;;5067931;28;20809;-72
2024/01/24 12:15:45;;;;;;;0.70;0.40;;;12.30;99.90;;;;;;5067590;28;20423;-72
2024/01/24 12:18:18;;;;;;;0.70;0.40;;;12.30;99.90;;;;;;5067436;28;20590;-73
2024/01/24 12:20:52;;;;;;;0.80;0.30;;;12.30;99.90;;;;;;5067511;28;20423;-71
2024/01/24 12:23:19;;;;;;;0.80;0.40;;;12.30;99.90;;;;;;5067632;28;20423;-72
2024/01/24 12:25:44;;;;;;;1.00;0.37;;;12.30;99.90;;;;;;5067574;28;21074;-72
2024/01/24 12:28:11;;;;;;;2.50;0.60;;;12.30;99.90;;;;;;5067432;28;20478;-72
2024/01/24 12:30:37;;;;;;;1.00;0.50;;;12.30;99.90;;;;;;5067813;28;20974;-72
2024/01/24 12:33:04;;;;;;;0.90;0.60;;;12.10;99.90;;;;;;5067641;28;20414;-73
2024/01/24 12:35:31;;;;;;;0.70;0.40;;;12.10;99.90;;;;;;5067695;28;20183;-71
2024/01/24 12:38:01;;;;;;;1.33;0.50;;;12.00;99.90;;;;;;5067783;28;20470;-72
2024/01/24 12:40:28;;;;;;;0.83;0.47;;;12.00;99.90;;;;;;5049798;28;20424;-72
2024/01/24 12:42:55;;;;;;;0.80;0.53;;;12.10;99.90;;;;;;5068037;28;20509;-71
2024/01/24 12:45:23;;;;;;;0.90;0.70;;;12.10;99.90;;;;;;5068369;28;20500;-72